SBRB/RBR METAR and TAF weather

Enter ICAO airport designator
Station Type Date Time Source
SBRB METAR 2019/04/25 16:00 UTC NOAA

SBRB 251600Z 12004KT 9999 BKN027 FEW030TCU BKN100 30/25 Q1015


Station Type Date Time Source
SBRB Decoded METAR 2019/04/25 16:00 UTC NOAA

Rio Branco, Brazil (SBRB) 10-00S 067-48W 143M
Apr 25, 2019 - 12:00 PM EDT / 2019.04.25 1600 UTC
Wind: from the ESE (120 degrees) at 5 MPH (4 KT):0
Visibility: greater than 7 mile(s):0
Sky conditions: mostly cloudy
Weather: Towering cumulus clouds observed
Temperature: 86 F (30 C)
Heat index: 96.8 F (36.0 C):1
Dew Point: 77 F (25 C)
Relative Humidity: 74%
Pressure (altimeter): 29.97 in. Hg (1015 hPa)
ob: SBRB 251600Z 12004KT 9999 BKN027 FEW030TCU BKN100 30/25 Q1015
cycle: 16

Station Type Date Time Source
SBRB TAF 2019/04/25 18:51 UTC NOAA

TAF SBRB 251600Z 2518/2618 10007KT 9999 SCT030 TX30/2518Z TN23/2609Z
BECMG 2600/2601 00000KT CAVOK PROB30 2609/2611 15003KT 3000 BR BKN003 BECM G 2612/2613 13004KT BKN012
RMK PFM

Example: see airport list